Time;durP1;ratioP1;P1;durP2;ratioP2;P2;SDS_P1;SDS_P2;PMS_P1;PMS_P2;Temp;Humidity;BMP_temperature;BMP_pressure;BME280_temperature;BME280_humidity;BME280_pressure;Samples;Min_cycle;Max_cycle;Signal;HPM_P1;HPM_P2
2021/06/19 00:01:30;;;;;;;2.87;2.53;;;25.20;66.50;;;;;;5095428;28;20241;-89
2021/06/19 00:03:55;;;;;;;3.03;2.27;;;25.20;66.60;;;;;;5096132;28;20198;-89
2021/06/19 00:06:21;;;;;;;6.43;2.43;;;25.30;66.10;;;;;;5095470;28;20198;-89
2021/06/19 00:08:47;;;;;;;2.47;2.37;;;25.30;65.80;;;;;;5095578;28;20172;-89
2021/06/19 00:11:13;;;;;;;3.10;2.43;;;25.30;65.40;;;;;;5095078;28;20430;-90
2021/06/19 00:13:39;;;;;;;2.50;2.30;;;25.20;65.10;;;;;;5094962;28;20172;-90
2021/06/19 00:16:05;;;;;;;2.47;2.20;;;25.20;65.30;;;;;;5094135;28;20438;-90
2021/06/19 00:18:32;;;;;;;3.53;3.00;;;25.10;65.10;;;;;;5095854;28;20418;-90
2021/06/19 00:20:58;;;;;;;2.70;2.50;;;25.10;65.10;;;;;;5095217;28;20438;-90
2021/06/19 00:23:24;;;;;;;2.83;2.27;;;25.10;65.00;;;;;;5095627;28;20426;-90
2021/06/19 00:25:50;;;;;;;4.30;2.20;;;25.00;65.00;;;;;;5094868;28;20768;-90
2021/06/19 00:28:16;;;;;;;2.83;2.60;;;25.00;65.10;;;;;;5095172;28;20455;-90
2021/06/19 00:30:42;;;;;;;2.30;2.10;;;25.00;65.10;;;;;;5094718;28;20549;-89
2021/06/19 00:33:08;;;;;;;2.27;2.00;;;25.10;65.00;;;;;;5095271;28;20865;-90
2021/06/19 00:35:34;;;;;;;4.00;2.37;;;25.00;65.80;;;;;;5095134;28;20199;-90
2021/06/19 00:38:00;;;;;;;2.23;2.00;;;24.90;65.00;;;;;;5097676;28;20920;-90
2021/06/19 00:40:26;;;;;;;5.07;3.00;;;24.80;65.30;;;;;;5099436;28;20425;-89
2021/06/19 00:43:00;;;;;;;2.70;2.50;;;24.70;65.70;;;;;;5097511;28;20216;-89
2021/06/19 00:45:32;;;;;;;4.00;2.70;;;24.60;65.90;;;;;;5099073;28;20919;-90
2021/06/19 00:47:58;;;;;;;3.10;2.40;;;24.70;66.30;;;;;;5099232;28;20475;-90
2021/06/19 00:50:26;;;;;;;3.10;2.40;;;24.60;66.40;;;;;;5098841;28;20457;-89
2021/06/19 00:52:52;;;;;;;2.43;2.27;;;24.60;66.40;;;;;;5098477;28;20455;-89
2021/06/19 00:55:18;;;;;;;2.33;2.13;;;24.60;66.40;;;;;;5099432;28;20410;-89
2021/06/19 00:57:45;;;;;;;2.80;2.57;;;24.60;66.50;;;;;;5097077;28;20414;-89
2021/06/19 01:00:12;;;;;;;6.50;2.27;;;24.60;66.60;;;;;;5097945;28;20454;-91
2021/06/19 01:02:39;;;;;;;5.50;2.20;;;24.60;66.60;;;;;;5097929;28;20434;-90
2021/06/19 01:05:08;;;;;;;4.57;2.73;;;24.70;66.60;;;;;;5098465;28;20421;-90
2021/06/19 01:07:34;;;;;;;3.50;3.10;;;24.60;66.40;;;;;;5099796;28;20924;-90
2021/06/19 01:09:59;;;;;;;3.73;3.10;;;24.50;66.50;;;;;;5099020;28;20422;-90
2021/06/19 01:12:26;;;;;;;3.00;2.80;;;24.50;66.70;;;;;;5095285;28;20954;-90
2021/06/19 01:14:55;;;;;;;2.97;2.70;;;24.50;66.70;;;;;;5078420;28;20272;-90
2021/06/19 01:17:22;;;;;;;3.23;3.03;;;24.40;66.80;;;;;;5086169;28;20501;-90
2021/06/19 01:20:04;;;;;;;4.73;2.83;;;24.40;66.90;;;;;;5099884;28;20862;-90
2021/06/19 01:22:30;;;;;;;4.37;2.30;;;24.50;66.80;;;;;;5099156;28;20441;-90
2021/06/19 01:24:58;;;;;;;2.93;2.73;;;24.60;66.10;;;;;;5103042;28;20412;-90
2021/06/19 01:27:33;;;;;;;2.50;2.30;;;24.60;66.10;;;;;;5110494;28;20590;-89
2021/06/19 01:30:00;;;;;;;3.37;3.07;;;24.50;66.20;;;;;;5118553;28;20433;-89
2021/06/19 01:32:28;;;;;;;2.57;2.37;;;24.50;66.00;;;;;;5107967;28;20452;-89
2021/06/19 01:34:55;;;;;;;3.00;2.70;;;24.50;65.90;;;;;;5098540;28;20416;-89
2021/06/19 01:37:21;;;;;;;3.23;2.67;;;24.50;65.60;;;;;;5099938;28;20416;-88
2021/06/19 01:39:47;;;;;;;3.17;2.97;;;24.50;65.50;;;;;;5098849;28;20891;-89
2021/06/19 01:42:13;;;;;;;3.50;2.87;;;24.40;65.30;;;;;;5096748;28;20787;-89
2021/06/19 01:44:39;;;;;;;3.60;3.30;;;24.40;65.40;;;;;;5100305;28;20178;-89
2021/06/19 01:47:05;;;;;;;4.13;3.00;;;24.30;65.50;;;;;;5106331;28;20445;-89
2021/06/19 01:49:35;;;;;;;6.63;3.27;;;24.30;65.70;;;;;;5112518;28;20452;-89
2021/06/19 01:52:02;;;;;;;3.57;3.27;;;24.40;65.70;;;;;;5111784;28;20433;-89
2021/06/19 01:54:37;;;;;;;3.70;3.40;;;24.40;65.40;;;;;;5112313;28;20803;-89
2021/06/19 01:57:04;;;;;;;3.90;3.20;;;24.30;65.70;;;;;;5106194;28;20410;-89
2021/06/19 01:59:30;;;;;;;3.50;3.20;;;24.20;65.80;;;;;;5096843;28;20422;-89
2021/06/19 02:01:58;;;;;;;3.30;3.00;;;24.20;66.10;;;;;;5096330;28;20787;-89
2021/06/19 02:04:26;;;;;;;3.97;3.73;;;24.30;66.10;;;;;;5077236;28;20279;-89
2021/06/19 02:06:52;;;;;;;5.60;4.80;;;24.40;65.70;;;;;;5096746;28;20475;-88
2021/06/19 02:09:18;;;;;;;4.73;4.30;;;24.30;65.80;;;;;;5096197;28;20471;-89
2021/06/19 02:11:44;;;;;;;3.50;3.30;;;24.20;65.80;;;;;;5095233;28;20446;-89
2021/06/19 02:14:15;;;;;;;4.00;3.27;;;24.10;66.00;;;;;;5096335;28;20430;-89
2021/06/19 02:16:41;;;;;;;4.43;4.03;;;24.20;66.90;;;;;;5096503;28;20402;-89
2021/06/19 02:19:08;;;;;;;4.03;3.43;;;24.20;66.20;;;;;;5096549;28;20413;-88
2021/06/19 02:21:34;;;;;;;4.30;3.40;;;24.10;66.20;;;;;;5096046;28;20463;-89
2021/06/19 02:24:00;;;;;;;8.43;3.77;;;24.10;66.20;;;;;;5095861;28;20414;-89
2021/06/19 02:26:26;;;;;;;4.30;3.90;;;24.10;66.20;;;;;;5097298;28;20417;-89
2021/06/19 02:28:51;;;;;;;6.40;3.63;;;24.10;66.30;;;;;;5096560;28;20499;-89
2021/06/19 02:31:19;;;;;;;3.60;3.30;;;24.20;66.10;;;;;;5095483;28;20209;-90
2021/06/19 02:33:46;;;;;;;3.67;3.37;;;24.30;65.70;;;;;;5097549;28;20186;-90
2021/06/19 02:36:12;;;;;;;5.17;4.87;;;24.20;65.50;;;;;;5096542;28;20479;-90
2021/06/19 02:38:38;;;;;;;5.23;4.73;;;24.20;65.60;;;;;;5096104;28;20420;-90
2021/06/19 02:41:04;;;;;;;5.63;4.20;;;24.10;64.60;;;;;;5096511;28;20283;-90
2021/06/19 02:43:30;;;;;;;6.07;4.13;;;24.10;64.70;;;;;;5097981;28;20176;-89
2021/06/19 02:45:59;;;;;;;7.70;4.80;;;24.00;64.60;;;;;;5104738;28;20183;-89
2021/06/19 02:48:28;;;;;;;4.77;4.00;;;24.00;64.30;;;;;;5104821;28;20464;-90
2021/06/19 02:50:55;;;;;;;6.17;4.70;;;23.90;64.10;;;;;;5102847;28;20509;-89
2021/06/19 02:53:21;;;;;;;5.50;4.70;;;23.90;64.10;;;;;;5098063;28;20908;-89
2021/06/19 02:55:46;;;;;;;5.77;4.07;;;23.90;64.40;;;;;;5095990;28;20418;-90
2021/06/19 02:58:14;;;;;;;5.80;4.80;;;23.80;64.40;;;;;;5096920;28;20187;-89
2021/06/19 03:00:40;;;;;;;7.90;6.60;;;23.80;64.50;;;;;;5101494;28;20290;-89
2021/06/19 03:03:07;;;;;;;8.67;6.57;;;23.70;65.70;;;;;;5094012;28;20441;-89
2021/06/19 03:05:34;;;;;;;7.33;6.53;;;23.70;65.30;;;;;;5076936;28;20486;-90
2021/06/19 03:08:00;;;;;;;10.20;6.77;;;23.60;65.50;;;;;;5075858;28;20600;-89
2021/06/19 03:10:33;;;;;;;8.43;6.87;;;23.60;65.70;;;;;;5076264;28;20423;-90
2021/06/19 03:12:59;;;;;;;8.50;6.33;;;23.50;65.70;;;;;;5076860;28;20506;-89
2021/06/19 03:15:25;;;;;;;8.23;5.33;;;23.30;66.00;;;;;;5078383;28;20434;-89
2021/06/19 03:17:51;;;;;;;6.20;4.87;;;23.30;66.10;;;;;;5078158;28;20492;-89
2021/06/19 03:20:18;;;;;;;10.03;5.20;;;23.20;65.80;;;;;;5076203;28;20430;-90
2021/06/19 03:22:46;;;;;;;7.03;4.23;;;23.20;65.80;;;;;;5079498;28;20492;-89
2021/06/19 03:25:26;;;;;;;4.87;4.00;;;23.20;65.80;;;;;;5076774;28;20423;-89
2021/06/19 03:27:52;;;;;;;4.43;4.03;;;23.30;65.80;;;;;;5077911;28;20466;-89
2021/06/19 03:30:20;;;;;;;6.17;4.70;;;23.30;66.50;;;;;;5085463;28;20429;-89
2021/06/19 03:32:46;;;;;;;4.40;3.97;;;23.20;65.50;;;;;;5103948;28;20268;-89
2021/06/19 03:35:13;;;;;;;7.30;5.30;;;23.10;65.40;;;;;;5103251;28;20413;-89
2021/06/19 03:37:41;;;;;;;8.80;6.00;;;23.00;65.40;;;;;;5100135;28;20457;-89
2021/06/19 03:40:09;;;;;;;10.80;7.07;;;23.00;65.40;;;;;;5097420;28;20418;-89
2021/06/19 03:42:35;;;;;;;6.20;5.60;;;22.90;65.60;;;;;;5096128;28;20446;-89
2021/06/19 03:45:01;;;;;;;8.73;6.67;;;22.80;65.70;;;;;;5095745;28;20449;-89
2021/06/19 03:47:26;;;;;;;7.93;5.73;;;22.70;66.00;;;;;;5094663;28;20464;-89
2021/06/19 03:49:52;;;;;;;6.80;5.20;;;22.70;66.20;;;;;;5095949;28;20186;-90
2021/06/19 03:52:18;;;;;;;5.50;4.70;;;22.70;66.40;;;;;;5095940;28;20188;-89
2021/06/19 03:54:43;;;;;;;5.27;4.77;;;22.80;66.50;;;;;;5095522;28;20353;-90
2021/06/19 03:57:09;;;;;;;7.53;6.00;;;22.80;66.40;;;;;;5095516;28;20191;-89
2021/06/19 03:59:35;;;;;;;9.50;5.80;;;22.80;66.40;;;;;;5096094;28;20176;-89
2021/06/19 04:02:01;;;;;;;11.50;5.73;;;22.80;66.40;;;;;;5093985;28;20654;-89
2021/06/19 04:04:27;;;;;;;6.20;4.73;;;22.80;66.00;;;;;;5095407;28;20180;-89
2021/06/19 04:06:52;;;;;;;7.57;5.37;;;22.90;66.00;;;;;;5095694;28;20844;-88
2021/06/19 04:09:18;;;;;;;5.87;5.30;;;23.00;65.20;;;;;;5095439;28;20540;-89
2021/06/19 04:11:44;;;;;;;6.57;4.80;;;22.90;65.10;;;;;;5095258;28;20210;-88
2021/06/19 04:14:10;;;;;;;5.00;4.50;;;22.80;65.00;;;;;;5083041;28;20180;-88
2021/06/19 04:16:37;;;;;;;6.10;4.17;;;22.80;64.40;;;;;;5100640;28;20168;-88
2021/06/19 04:19:02;;;;;;;6.07;4.30;;;22.80;64.20;;;;;;5101554;28;20430;-88
2021/06/19 04:21:28;;;;;;;6.10;5.10;;;22.70;64.30;;;;;;5100924;28;20442;-88
2021/06/19 04:23:54;;;;;;;6.63;4.50;;;22.70;65.40;;;;;;5080750;28;20434;-89
2021/06/19 04:26:20;;;;;;;7.20;4.63;;;22.70;64.50;;;;;;5078781;28;20192;-89
2021/06/19 04:28:46;;;;;;;6.10;4.20;;;22.80;64.60;;;;;;5078392;28;20599;-89
2021/06/19 04:31:12;;;;;;;4.53;4.03;;;22.90;64.50;;;;;;5090538;28;20516;-89
2021/06/19 04:33:39;;;;;;;4.37;4.00;;;22.80;64.30;;;;;;5099483;28;20410;-89
2021/06/19 04:36:06;;;;;;;3.50;3.00;;;22.70;64.20;;;;;;5099976;28;20405;-90
2021/06/19 04:38:32;;;;;;;4.40;3.77;;;22.70;64.30;;;;;;5099135;28;20414;-89
2021/06/19 04:41:07;;;;;;;9.00;6.03;;;22.70;64.30;;;;;;5099346;28;20441;-89
2021/06/19 04:46:11;;;;;;;8.10;5.33;;;22.60;63.70;;;;;;5101696;28;20501;-89
2021/06/19 04:48:36;;;;;;;6.87;6.20;;;22.70;63.90;;;;;;5099908;28;20486;-89
2021/06/19 04:51:02;;;;;;;9.33;5.50;;;22.60;63.70;;;;;;5114153;28;20196;-88
2021/06/19 04:53:28;;;;;;;7.77;5.70;;;22.70;63.80;;;;;;5119652;28;20156;-89
2021/06/19 04:55:54;;;;;;;7.00;5.33;;;22.60;63.40;;;;;;5120913;28;20184;-87
2021/06/19 04:58:20;;;;;;;8.50;6.47;;;22.60;63.50;;;;;;5114228;28;20247;-89
2021/06/19 05:00:45;;;;;;;7.37;5.00;;;22.50;63.30;;;;;;5108234;28;20276;-89
2021/06/19 05:03:18;;;;;;;10.00;5.27;;;22.60;63.50;;;;;;5100983;28;20508;-89
2021/06/19 05:05:44;;;;;;;5.80;4.30;;;22.50;63.40;;;;;;5098427;28;20195;-88
2021/06/19 05:08:09;;;;;;;4.27;3.87;;;22.50;63.30;;;;;;5099137;28;20462;-89
2021/06/19 05:10:36;;;;;;;4.87;3.50;;;22.50;63.30;;;;;;5098476;28;20421;-88
2021/06/19 05:13:02;;;;;;;4.30;3.60;;;22.50;62.90;;;;;;5099938;28;20406;-89
2021/06/19 05:15:27;;;;;;;4.37;4.00;;;22.40;62.60;;;;;;5099306;28;20938;-89
2021/06/19 05:17:54;;;;;;;4.60;4.20;;;22.40;62.50;;;;;;5102188;28;20440;-89
2021/06/19 05:20:20;;;;;;;4.40;3.97;;;22.30;62.70;;;;;;5106300;28;20581;-89
2021/06/19 05:22:47;;;;;;;4.63;3.93;;;22.30;62.80;;;;;;5111816;28;20563;-89
2021/06/19 05:25:13;;;;;;;4.83;3.40;;;22.40;63.00;;;;;;5112961;28;20425;-88
2021/06/19 05:27:40;;;;;;;6.80;3.23;;;22.40;62.80;;;;;;5110481;28;20469;-88
2021/06/19 05:30:06;;;;;;;4.20;3.43;;;22.40;62.80;;;;;;5098946;28;20414;-88
2021/06/19 05:32:32;;;;;;;3.73;3.20;;;22.40;62.90;;;;;;5098454;28;20442;-89
2021/06/19 05:34:58;;;;;;;5.00;3.90;;;22.40;62.90;;;;;;5098679;28;20444;-88
2021/06/19 05:37:23;;;;;;;6.53;4.20;;;22.60;62.70;;;;;;5096783;28;20867;-89
2021/06/19 05:39:49;;;;;;;6.47;3.30;;;22.50;62.60;;;;;;5094327;28;20233;-89
2021/06/19 05:42:15;;;;;;;4.10;3.80;;;22.50;62.90;;;;;;5077543;28;20200;-89
2021/06/19 05:44:41;;;;;;;3.70;3.40;;;22.70;62.80;;;;;;5077683;28;20524;-89
2021/06/19 05:47:07;;;;;;;5.10;3.37;;;22.60;62.50;;;;;;5095942;28;20195;-89
2021/06/19 05:49:33;;;;;;;5.87;3.67;;;22.70;62.80;;;;;;5097330;28;20195;-89
2021/06/19 05:51:59;;;;;;;3.23;2.80;;;22.80;62.10;;;;;;5097984;28;20952;-88
2021/06/19 05:54:24;;;;;;;3.80;2.43;;;22.90;62.10;;;;;;5098803;28;20597;-88
2021/06/19 05:56:51;;;;;;;2.77;2.40;;;22.70;61.80;;;;;;5098988;28;20536;-88
2021/06/19 05:59:16;;;;;;;3.47;3.17;;;22.60;62.00;;;;;;5097874;28;20183;-89
2021/06/19 06:01:43;;;;;;;3.50;3.20;;;22.50;62.30;;;;;;5098185;28;20497;-89
2021/06/19 06:04:09;;;;;;;2.93;2.70;;;22.50;62.40;;;;;;5098088;28;20202;-88
2021/06/19 06:06:34;;;;;;;3.97;2.40;;;22.50;62.60;;;;;;5096739;28;20442;-88
2021/06/19 06:09:00;;;;;;;3.40;2.70;;;22.50;62.50;;;;;;5096898;28;20430;-89
2021/06/19 06:11:26;;;;;;;3.73;2.97;;;22.50;62.40;;;;;;5097555;28;20223;-88
2021/06/19 06:13:51;;;;;;;2.93;2.70;;;22.50;62.70;;;;;;5097613;28;20172;-88
2021/06/19 06:16:17;;;;;;;8.10;3.10;;;22.60;62.60;;;;;;5097884;28;20191;-88
2021/06/19 06:18:43;;;;;;;6.07;3.60;;;22.60;62.60;;;;;;5077100;28;20238;-88
2021/06/19 06:21:08;;;;;;;7.73;3.70;;;22.60;62.70;;;;;;5076159;28;20212;-88
2021/06/19 06:23:34;;;;;;;8.20;3.70;;;22.50;62.80;;;;;;5076308;28;20214;-88
2021/06/19 06:26:01;;;;;;;3.40;3.00;;;22.50;63.10;;;;;;5095657;28;20240;-88
2021/06/19 06:28:27;;;;;;;4.20;3.40;;;22.70;63.30;;;;;;5096675;28;20218;-88
2021/06/19 06:30:53;;;;;;;3.87;3.47;;;22.80;62.90;;;;;;5095742;28;20977;-88
2021/06/19 06:33:20;;;;;;;3.27;3.03;;;22.80;62.50;;;;;;5098299;28;20410;-88
2021/06/19 06:35:46;;;;;;;4.40;3.50;;;22.80;62.40;;;;;;5097777;28;20186;-88
2021/06/19 06:38:11;;;;;;;3.27;2.97;;;22.70;62.30;;;;;;5096030;28;20485;-88
2021/06/19 06:40:37;;;;;;;3.90;3.47;;;22.70;62.60;;;;;;5095403;28;20176;-88
2021/06/19 06:43:03;;;;;;;4.93;4.47;;;22.70;62.70;;;;;;5095957;28;20180;-88
2021/06/19 06:45:28;;;;;;;3.67;3.33;;;22.60;63.30;;;;;;5096179;28;20331;-88
2021/06/19 06:47:54;;;;;;;4.13;3.80;;;22.60;62.70;;;;;;5097976;28;20195;-88
2021/06/19 06:50:20;;;;;;;5.37;3.50;;;22.80;62.80;;;;;;5097510;28;20218;-88
2021/06/19 06:52:46;;;;;;;4.97;3.70;;;23.00;62.50;;;;;;5085692;28;20176;-88
2021/06/19 06:55:13;;;;;;;3.57;3.27;;;23.10;61.50;;;;;;5099531;28;20762;-88
2021/06/19 06:57:38;;;;;;;7.83;3.60;;;23.10;61.20;;;;;;5100282;28;20442;-88
2021/06/19 07:00:07;;;;;;;3.13;2.87;;;23.00;61.20;;;;;;5107347;28;20444;-88
2021/06/19 07:02:32;;;;;;;3.60;3.30;;;22.90;61.70;;;;;;5109545;28;20444;-88
2021/06/19 07:04:58;;;;;;;2.57;2.37;;;22.90;61.90;;;;;;5104854;28;20457;-87
2021/06/19 07:07:24;;;;;;;6.00;3.00;;;22.80;62.40;;;;;;5096928;28;20215;-87
2021/06/19 07:09:50;;;;;;;3.00;2.80;;;22.90;62.70;;;;;;5095950;28;20478;-88
2021/06/19 07:12:16;;;;;;;2.90;2.10;;;23.00;62.20;;;;;;5094009;28;20287;-88
2021/06/19 07:14:42;;;;;;;2.30;2.10;;;23.00;62.40;;;;;;5078965;28;20438;-88
2021/06/19 07:17:09;;;;;;;2.50;2.30;;;23.40;61.60;;;;;;5074933;28;20430;-88
2021/06/19 07:19:36;;;;;;;3.77;3.40;;;23.40;60.90;;;;;;5075031;28;20509;-88
2021/06/19 07:22:03;;;;;;;5.23;3.73;;;23.40;60.50;;;;;;5082483;28;20861;-88
2021/06/19 07:24:29;;;;;;;4.40;4.07;;;23.40;60.30;;;;;;5093849;28;20896;-88
2021/06/19 07:26:54;;;;;;;5.57;3.37;;;23.50;60.20;;;;;;5094268;28;20430;-88
2021/06/19 07:29:20;;;;;;;3.23;2.93;;;23.60;59.90;;;;;;5094703;28;20847;-89
2021/06/19 07:31:46;;;;;;;4.67;3.90;;;23.80;59.70;;;;;;5095126;28;20196;-89
2021/06/19 07:34:11;;;;;;;4.20;3.57;;;23.90;59.00;;;;;;5094082;28;20175;-89
2021/06/19 07:36:40;;;;;;;4.80;3.90;;;23.90;59.40;;;;;;5094707;28;20587;-89
2021/06/19 07:39:07;;;;;;;5.33;3.83;;;23.80;58.90;;;;;;5094486;28;20198;-89
2021/06/19 07:41:32;;;;;;;7.27;4.40;;;23.60;59.30;;;;;;5094226;28;20521;-89
2021/06/19 07:44:01;;;;;;;3.93;3.63;;;23.80;59.80;;;;;;5094888;28;20927;-89
2021/06/19 07:46:27;;;;;;;4.67;4.20;;;23.70;59.40;;;;;;5094281;28;20545;-89
2021/06/19 07:48:52;;;;;;;5.50;4.63;;;23.70;59.30;;;;;;5099312;28;20449;-88
2021/06/19 07:51:18;;;;;;;5.80;4.87;;;23.70;59.60;;;;;;5099540;28;20222;-89
2021/06/19 07:53:44;;;;;;;6.50;5.90;;;23.80;59.50;;;;;;5098503;28;20233;-88
2021/06/19 07:56:09;;;;;;;6.63;5.00;;;23.80;59.10;;;;;;5101850;28;20175;-88
2021/06/19 07:58:35;;;;;;;5.80;5.30;;;23.80;58.80;;;;;;5099926;28;20268;-88
2021/06/19 08:01:01;;;;;;;7.77;5.83;;;23.80;59.20;;;;;;5099056;28;20700;-88
2021/06/19 08:03:27;;;;;;;5.47;5.00;;;23.80;59.20;;;;;;5098598;28;20430;-88
2021/06/19 08:05:53;;;;;;;7.73;4.83;;;23.90;59.40;;;;;;5097929;28;20946;-88
2021/06/19 08:08:19;;;;;;;14.67;5.70;;;24.00;59.00;;;;;;5097973;28;20211;-89
2021/06/19 08:10:44;;;;;;;7.40;6.37;;;23.90;59.00;;;;;;5097579;28;20543;-89
2021/06/19 08:13:10;;;;;;;15.40;6.33;;;23.90;59.20;;;;;;5097134;28;20424;-89
2021/06/19 08:15:36;;;;;;;7.47;5.30;;;24.00;59.00;;;;;;5097735;28;20492;-89
2021/06/19 08:18:03;;;;;;;11.80;7.80;;;23.90;59.60;;;;;;5098170;28;20180;-88
2021/06/19 08:20:29;;;;;;;11.53;6.30;;;23.90;59.50;;;;;;5096989;28;20180;-89
2021/06/19 08:22:55;;;;;;;10.00;7.03;;;24.10;59.50;;;;;;5083370;28;20426;-88
2021/06/19 08:25:23;;;;;;;9.90;7.07;;;23.90;59.20;;;;;;5087013;28;20473;-89
2021/06/19 08:27:50;;;;;;;8.03;7.23;;;24.00;59.70;;;;;;5109990;28;20627;-89
2021/06/19 08:30:16;;;;;;;8.00;7.10;;;23.90;59.20;;;;;;5109205;28;20425;-89
2021/06/19 08:32:41;;;;;;;8.80;7.90;;;23.90;59.60;;;;;;5113166;28;20448;-89
2021/06/19 08:35:11;;;;;;;7.50;6.70;;;23.70;59.40;;;;;;5117310;28;20425;-88
2021/06/19 08:37:36;;;;;;;9.80;6.83;;;23.50;59.80;;;;;;5113696;28;20176;-89
2021/06/19 08:40:04;;;;;;;10.70;8.63;;;23.60;60.30;;;;;;5105311;28;20453;-89
2021/06/19 08:42:29;;;;;;;9.73;6.83;;;23.50;60.20;;;;;;5102788;28;20196;-89
2021/06/19 08:44:58;;;;;;;9.97;7.33;;;23.40;60.60;;;;;;5102523;28;20425;-89
2021/06/19 08:47:25;;;;;;;8.83;7.13;;;23.30;60.90;;;;;;5079660;28;20208;-89
2021/06/19 08:49:52;;;;;;;11.53;7.33;;;23.10;61.10;;;;;;5099789;28;20414;-89
2021/06/19 08:52:18;;;;;;;11.03;8.00;;;23.00;61.40;;;;;;5106926;28;20437;-89
2021/06/19 08:54:44;;;;;;;9.67;7.20;;;23.10;61.50;;;;;;5107202;28;20519;-89
2021/06/19 08:57:11;;;;;;;11.17;7.80;;;23.10;61.60;;;;;;5108315;28;20426;-89
2021/06/19 08:59:38;;;;;;;9.97;7.40;;;23.20;61.50;;;;;;5113139;28;20180;-89
2021/06/19 09:02:06;;;;;;;11.60;7.70;;;23.30;60.80;;;;;;5115680;28;20491;-90
2021/06/19 09:05:09;;;;;;;8.17;7.10;;;23.40;60.70;;;;;;5116579;28;20493;-90
2021/06/19 09:07:50;;;;;;;9.77;6.37;;;23.60;60.40;;;;;;5114414;28;20478;-89
2021/06/19 09:10:24;;;;;;;6.93;6.23;;;23.70;59.40;;;;;;5108596;28;20779;-89
2021/06/19 09:12:57;;;;;;;6.50;5.27;;;23.80;59.10;;;;;;5105322;28;20417;-91
2021/06/19 09:15:24;;;;;;;7.53;5.80;;;24.00;58.70;;;;;;5100795;28;20409;-90
2021/06/19 09:18:03;;;;;;;10.33;8.40;;;24.30;57.80;;;;;;5099968;28;20921;-90
2021/06/19 09:20:41;;;;;;;9.07;8.17;;;24.00;57.30;;;;;;5097261;28;20449;-90
2021/06/19 09:23:11;;;;;;;8.07;7.17;;;24.10;57.80;;;;;;5102114;28;20420;-90
2021/06/19 09:25:38;;;;;;;7.87;6.33;;;23.90;57.90;;;;;;5113393;28;20424;-90
2021/06/19 09:28:06;;;;;;;8.40;7.60;;;23.60;58.80;;;;;;5112877;28;20461;-91
2021/06/19 09:30:34;;;;;;;8.50;7.70;;;23.30;60.00;;;;;;5111291;28;20414;-91
2021/06/19 09:33:06;;;;;;;10.87;8.07;;;23.20;60.90;;;;;;5103786;28;20418;-91
2021/06/19 09:35:33;;;;;;;8.50;7.27;;;23.20;61.00;;;;;;5111195;28;20425;-90
2021/06/19 09:38:04;;;;;;;9.97;8.97;;;23.40;60.90;;;;;;5102646;28;20422;-90
2021/06/19 09:40:41;;;;;;;10.43;8.10;;;23.30;60.60;;;;;;5101314;28;20433;-90
2021/06/19 09:43:19;;;;;;;11.00;8.37;;;23.20;60.90;;;;;;5101405;28;20920;-90
2021/06/19 09:46:08;;;;;;;15.00;11.07;;;23.20;61.10;;;;;;5101023;28;20413;-90
2021/06/19 09:48:38;;;;;;;11.77;10.57;;;23.10;61.10;;;;;;5104684;28;20441;-90
2021/06/19 09:51:24;;;;;;;9.07;8.17;;;23.10;61.10;;;;;;5099586;28;20639;-91
2021/06/19 09:53:53;;;;;;;11.03;8.87;;;23.20;60.30;;;;;;5106975;28;20421;-90
2021/06/19 09:56:24;;;;;;;12.97;8.07;;;23.10;61.10;;;;;;5101605;28;20417;-91
2021/06/19 09:58:58;;;;;;;9.77;7.40;;;23.20;60.40;;;;;;5096417;28;20425;-90
2021/06/19 10:01:35;;;;;;;12.13;9.07;;;23.10;60.40;;;;;;5097477;28;20452;-90
2021/06/19 10:04:19;;;;;;;9.47;8.47;;;23.20;60.40;;;;;;5097330;28;20417;-90
2021/06/19 10:06:46;;;;;;;11.90;9.53;;;23.40;60.30;;;;;;5097001;28;20481;-90
2021/06/19 10:09:14;;;;;;;11.10;8.57;;;23.50;59.60;;;;;;5098071;28;20561;-90
2021/06/19 10:11:41;;;;;;;9.73;8.80;;;23.30;59.80;;;;;;5100085;28;20429;-90
2021/06/19 10:14:14;;;;;;;17.47;13.97;;;23.20;60.10;;;;;;5104035;28;20790;-90
2021/06/19 10:16:41;;;;;;;28.30;21.50;;;23.20;60.30;;;;;;5105656;28;20424;-89
2021/06/19 10:19:08;;;;;;;32.80;23.83;;;22.90;61.00;;;;;;5104402;28;20430;-90
2021/06/19 10:21:35;;;;;;;18.67;13.90;;;22.80;61.80;;;;;;5099791;28;20517;-90
2021/06/19 10:24:01;;;;;;;23.07;19.63;;;22.90;61.50;;;;;;5095286;28;20418;-90
2021/06/19 10:26:27;;;;;;;24.93;17.80;;;23.00;61.10;;;;;;5077035;28;20450;-90
2021/06/19 10:28:57;;;;;;;18.67;16.43;;;23.00;61.10;;;;;;5075662;28;20456;-90
2021/06/19 10:31:25;;;;;;;29.07;17.70;;;23.20;60.20;;;;;;5086818;28;20199;-90
2021/06/19 10:33:51;;;;;;;15.70;12.10;;;23.50;59.90;;;;;;5095814;28;20414;-89
2021/06/19 10:36:17;;;;;;;14.57;11.90;;;23.50;59.90;;;;;;5095165;28;20449;-89
2021/06/19 10:38:57;;;;;;;15.80;12.30;;;23.50;60.00;;;;;;5095446;28;21050;-89
2021/06/19 10:41:49;;;;;;;18.30;13.40;;;23.60;59.50;;;;;;5094079;28;20196;-90
2021/06/19 10:44:50;;;;;;;15.97;10.67;;;23.80;59.00;;;;;;5094858;28;20422;-89
2021/06/19 10:47:18;;;;;;;18.03;13.23;;;23.90;58.50;;;;;;5095026;28;20454;-90
2021/06/19 10:49:44;;;;;;;16.37;13.87;;;24.20;58.60;;;;;;5095023;28;20516;-90
2021/06/19 10:52:34;;;;;;;16.27;12.93;;;24.50;56.90;;;;;;5094548;28;20450;-89
2021/06/19 10:55:09;;;;;;;14.23;12.33;;;24.70;56.30;;;;;;5096175;28;20391;-89
2021/06/19 10:57:49;;;;;;;16.20;13.17;;;24.70;55.90;;;;;;5095165;28;20478;-90
2021/06/19 11:00:45;;;;;;;14.90;12.17;;;24.30;56.20;;;;;;5094955;28;20432;-89
2021/06/19 11:03:12;;;;;;;14.20;12.73;;;23.90;57.30;;;;;;5097246;28;20906;-91
2021/06/19 11:05:41;;;;;;;17.30;12.30;;;24.00;57.80;;;;;;5094085;28;20438;-92
2021/06/19 11:08:08;;;;;;;14.43;11.93;;;24.00;57.50;;;;;;5099097;28;20461;-92
2021/06/19 11:10:49;;;;;;;15.40;11.00;;;24.20;57.40;;;;;;5097615;28;20417;-93
2021/06/19 11:13:41;;;;;;;14.00;11.23;;;24.30;56.70;;;;;;5094907;28;20413;-91
2021/06/19 11:16:33;;;;;;;15.40;13.27;;;23.90;57.80;;;;;;5094759;28;20776;-90
2021/06/19 11:18:59;;;;;;;15.60;13.70;;;23.90;57.70;;;;;;5088915;28;20487;-89
2021/06/19 11:21:32;;;;;;;14.53;12.87;;;24.20;58.20;;;;;;5094708;28;20528;-91
2021/06/19 11:24:05;;;;;;;16.73;14.23;;;24.60;57.00;;;;;;5094921;28;20651;-90
2021/06/19 11:26:53;;;;;;;17.30;14.87;;;24.70;56.80;;;;;;5093919;28;20466;-89
2021/06/19 11:29:41;;;;;;;19.07;16.40;;;25.00;56.30;;;;;;5096050;28;20943;-90
2021/06/19 11:32:34;;;;;;;22.27;16.40;;;24.80;55.20;;;;;;5094983;28;20836;-91
2021/06/19 11:35:20;;;;;;;19.90;16.40;;;25.30;54.70;;;;;;5095173;28;20908;-90
2021/06/19 11:37:56;;;;;;;19.97;17.40;;;25.40;54.40;;;;;;5096761;28;20448;-90
2021/06/19 11:40:30;;;;;;;19.83;17.60;;;25.80;53.50;;;;;;5098599;28;20504;-91
2021/06/19 11:42:56;;;;;;;19.47;16.80;;;26.10;52.70;;;;;;5096624;28;20402;-91
2021/06/19 11:45:22;;;;;;;15.83;13.53;;;26.20;51.90;;;;;;5095279;28;20410;-91
2021/06/19 11:48:04;;;;;;;16.53;14.87;;;25.90;52.20;;;;;;5095555;28;20830;-91
2021/06/19 11:50:36;;;;;;;16.23;13.37;;;25.60;52.30;;;;;;5096865;28;20418;-91
2021/06/19 11:53:29;;;;;;;16.30;14.20;;;25.60;53.00;;;;;;5095613;28;20406;-91
2021/06/19 11:56:06;;;;;;;14.63;12.87;;;25.50;53.60;;;;;;5095525;28;20418;-90
2021/06/19 11:58:44;;;;;;;17.27;13.30;;;25.70;54.10;;;;;;5094503;28;20409;-90
2021/06/19 12:01:10;;;;;;;13.23;11.93;;;25.90;53.70;;;;;;5094379;28;20441;-91
2021/06/19 12:03:36;;;;;;;15.47;13.87;;;26.10;53.10;;;;;;5095473;28;20406;-90
2021/06/19 12:06:05;;;;;;;15.77;14.23;;;26.50;52.00;;;;;;5094950;28;20948;-91
2021/06/19 12:08:32;;;;;;;12.77;11.07;;;26.80;51.10;;;;;;5095995;28;20270;-90
2021/06/19 12:10:58;;;;;;;20.20;16.77;;;27.00;50.90;;;;;;5095235;28;20440;-91
2021/06/19 12:13:31;;;;;;;15.90;14.30;;;26.90;49.30;;;;;;5095799;28;20434;-91
2021/06/19 12:15:58;;;;;;;19.67;16.57;;;26.60;50.20;;;;;;5097019;28;20577;-90
2021/06/19 12:18:24;;;;;;;16.87;15.17;;;26.40;50.40;;;;;;5095415;28;20780;-91
2021/06/19 12:21:03;;;;;;;18.80;17.00;;;26.10;51.20;;;;;;5097986;28;20433;-91
2021/06/19 12:23:46;;;;;;;17.10;15.30;;;25.90;51.60;;;;;;5101895;28;20491;-91
2021/06/19 12:26:15;;;;;;;17.63;14.53;;;25.50;52.70;;;;;;5100235;28;20434;-90
2021/06/19 12:28:48;;;;;;;14.63;12.83;;;25.60;53.00;;;;;;5100427;28;20887;-90
2021/06/19 12:31:15;;;;;;;15.13;12.80;;;25.40;53.40;;;;;;5096855;28;20549;-91
2021/06/19 12:33:43;;;;;;;15.33;11.70;;;25.40;53.90;;;;;;5097497;28;20455;-90
2021/06/19 12:36:11;;;;;;;15.83;11.93;;;25.50;53.70;;;;;;5101106;28;20436;-91
2021/06/19 12:38:37;;;;;;;12.23;10.93;;;25.40;53.80;;;;;;5099665;28;20433;-91
2021/06/19 12:41:07;;;;;;;11.13;10.00;;;25.30;54.40;;;;;;5098423;28;20437;-91
2021/06/19 12:43:44;;;;;;;10.70;9.43;;;25.30;54.90;;;;;;5099269;28;20454;-90
2021/06/19 12:46:16;;;;;;;10.53;9.27;;;25.20;54.90;;;;;;5115428;28;20389;-90
2021/06/19 12:48:42;;;;;;;13.03;10.87;;;25.20;54.90;;;;;;5118952;28;20438;-90
2021/06/19 12:51:23;;;;;;;12.20;7.83;;;25.40;54.80;;;;;;5117711;28;20467;-91
2021/06/19 12:53:49;;;;;;;10.70;9.57;;;25.50;54.70;;;;;;5110136;28;20172;-90